createdAt,value
2017-10-29T00:04:58.289Z,11.02
2017-10-29T00:25:36.739Z,11.19
2017-10-29T00:46:10.675Z,11.36
2017-10-29T01:06:42.882Z,11.64
2017-10-29T01:27:15.077Z,11.83
2017-10-29T01:47:53.421Z,12.02
2017-10-29T02:08:32.988Z,12.10
2017-10-29T02:29:05.806Z,12.24
2017-10-29T02:49:44.152Z,12.39
2017-10-29T03:10:24.031Z,12.72
2017-10-29T03:31:01.454Z,12.82
2017-10-29T03:51:34.882Z,12.85
2017-10-29T04:12:08.367Z,12.77
2017-10-29T04:32:41.645Z,12.83
2017-10-29T04:53:21.807Z,12.98
2017-10-29T05:13:57.036Z,13.11
2017-10-29T05:34:32.159Z,13.31
2017-10-29T05:55:12.343Z,13.31
2017-10-29T06:15:48.371Z,13.39
2017-10-29T06:36:29.993Z,13.31
2017-10-29T06:57:07.416Z,13.44
2017-10-29T07:17:44.493Z,13.36
2017-10-29T07:38:22.004Z,13.22
2017-10-29T07:58:55.036Z,13.07
2017-10-29T08:19:32.151Z,12.88
2017-10-29T08:40:03.432Z,12.34
2017-10-29T09:00:37.775Z,11.99
2017-10-29T09:21:09.976Z,12.05
2017-10-29T09:41:46.317Z,12.08
2017-10-29T10:02:18.373Z,11.90
2017-10-29T10:22:50.568Z,12.37
2017-10-29T10:43:26.951Z,12.54
2017-10-29T11:04:02.960Z,12.78
2017-10-29T11:24:37.598Z,11.96
2017-10-29T11:45:08.605Z,12.30
2017-10-29T12:05:45.851Z,12.30
2017-10-29T12:26:24.970Z,12.49
2017-10-29T12:47:08.842Z,12.39
2017-10-29T13:07:53.768Z,12.43
2017-10-29T13:28:36.068Z,12.67
2017-10-29T13:49:14.331Z,12.42
2017-10-29T14:09:52.591Z,12.43
2017-10-29T14:30:27.822Z,12.15
2017-10-29T14:51:07.088Z,11.78
2017-10-29T15:11:42.166Z,11.78
2017-10-29T15:32:14.365Z,11.65
2017-10-29T15:52:49.749Z,11.36
2017-10-29T16:13:22.962Z,10.94
2017-10-29T16:33:55.158Z,10.72
2017-10-29T16:54:28.080Z,10.35
2017-10-29T17:15:03.598Z,9.81
2017-10-29T17:35:39.544Z,9.49
2017-10-29T17:56:16.663Z,8.67
2017-10-29T18:16:51.011Z,8.00
2017-10-29T18:37:30.277Z,8.09
2017-10-29T18:58:07.991Z,7.68
2017-10-29T19:18:46.658Z,7.31
2017-10-29T19:39:21.930Z,7.28
2017-10-29T19:59:54.434Z,6.94
2017-10-29T20:20:34.633Z,6.56
2017-10-29T20:41:09.037Z,6.39
2017-10-29T21:01:43.248Z,6.22
2017-10-29T21:22:19.211Z,6.11
2017-10-29T21:42:55.730Z,6.11
2017-10-29T22:03:28.834Z,6.21
2017-10-29T22:24:05.947Z,6.22
2017-10-29T22:44:40.409Z,6.13
2017-10-29T23:05:16.648Z,6.13
2017-10-29T23:25:48.847Z,6.06
2017-10-29T23:46:27.308Z,5.71
